createdAt,value
2022-11-14T07:15:57.838Z,10.80
2022-11-14T07:18:52.989Z,12.10
2022-11-14T07:21:48.931Z,11.70
2022-11-14T07:24:44.405Z,12.20
2022-11-14T07:27:40.671Z,11.97
2022-11-14T07:30:36.893Z,12.07
2022-11-14T07:33:35.498Z,12.37
2022-11-14T07:36:30.678Z,12.20
2022-11-14T07:39:26.038Z,12.50
2022-11-14T07:42:21.069Z,12.80
2022-11-14T07:45:16.319Z,12.47
2022-11-14T07:48:11.342Z,12.33
2022-11-14T07:51:17.568Z,12.13
2022-11-14T07:54:15.081Z,12.10
2022-11-14T07:57:10.528Z,12.50
2022-11-14T08:00:06.409Z,12.63
2022-11-14T08:03:02.233Z,13.60
2022-11-14T08:06:08.943Z,13.10
2022-11-14T08:09:04.669Z,14.20
2022-11-14T08:11:59.902Z,13.00
2022-11-14T08:14:55.431Z,12.77
2022-11-14T08:17:50.969Z,13.17
2022-11-14T08:20:46.711Z,12.60
2022-11-14T08:23:45.727Z,12.20
2022-11-14T08:26:41.506Z,11.83
2022-11-14T08:29:36.874Z,12.93
2022-11-14T08:32:32.533Z,13.20
2022-11-14T08:35:27.824Z,13.87
2022-11-14T08:38:23.314Z,12.93
2022-11-14T08:41:21.195Z,13.07
2022-11-14T08:44:17.247Z,12.67
2022-11-14T08:47:13.905Z,12.83
2022-11-14T08:50:11.585Z,12.87
2022-11-14T08:53:07.702Z,13.57
2022-11-14T08:56:04.089Z,13.23
2022-11-14T08:59:03.143Z,13.13
2022-11-14T09:01:59.219Z,14.27
2022-11-14T09:04:55.191Z,14.53
2022-11-14T09:07:51.423Z,14.80
2022-11-14T09:10:47.585Z,14.27
2022-11-14T09:13:44.035Z,14.67
2022-11-14T09:16:41.974Z,14.43
2022-11-14T09:19:37.869Z,13.83
2022-11-14T09:22:34.416Z,13.53
2022-11-14T09:25:30.253Z,13.50
2022-11-14T09:28:25.559Z,13.70
2022-11-14T09:31:21.347Z,13.10
2022-11-14T09:34:19.356Z,11.40
2022-11-14T09:37:15.237Z,12.50
2022-11-14T09:40:15.904Z,12.13
2022-11-14T09:43:39.395Z,11.20
2022-11-14T09:46:40.774Z,10.93
2022-11-14T09:49:42.814Z,11.77
2022-11-14T09:52:45.434Z,12.73
2022-11-14T09:55:41.428Z,11.30
2022-11-14T09:58:37.305Z,9.67
2022-11-14T10:01:49.369Z,8.93
2022-11-14T10:05:08.356Z,7.50
2022-11-14T10:08:23.644Z,6.97
2022-11-14T10:11:26.815Z,7.77
2022-11-14T10:21:11.255Z,6.97
2022-11-14T10:27:42.005Z,7.07
2022-11-14T10:34:10.024Z,6.60
2022-11-14T10:40:42.269Z,6.87
2022-11-14T10:47:10.416Z,7.63
2022-11-14T10:53:47.129Z,7.63
2022-11-14T11:00:19.647Z,7.80
2022-11-14T11:06:42.370Z,9.10
2022-11-14T11:13:05.426Z,9.73
2022-11-14T11:16:06.088Z,9.63
2022-11-14T11:19:25.302Z,9.90
2022-11-14T11:22:40.551Z,10.67
2022-11-14T11:25:37.478Z,10.07
2022-11-14T11:28:33.410Z,10.90
2022-11-14T11:31:32.143Z,10.47
2022-11-14T11:34:31.229Z,10.90
2022-11-14T11:37:30.470Z,11.30
2022-11-14T11:40:29.771Z,10.90
2022-11-14T11:43:39.833Z,11.83
2022-11-14T11:46:48.112Z,11.23
2022-11-14T11:49:53.928Z,11.87
2022-11-14T11:53:00.729Z,11.47
2022-11-14T11:56:02.906Z,13.17
2022-11-14T11:59:21.076Z,12.83
2022-11-14T12:02:26.765Z,12.43
2022-11-14T12:05:34.766Z,14.00
2022-11-14T12:08:38.618Z,14.33
2022-11-14T12:14:56.645Z,13.37
2022-11-14T12:18:24.003Z,13.10
2022-11-14T12:21:35.122Z,12.97
2022-11-14T12:25:11.882Z,13.07
2022-11-14T12:28:23.932Z,12.47
2022-11-14T12:31:21.309Z,13.63
2022-11-14T12:34:28.888Z,13.87
2022-11-14T12:37:33.050Z,15.47
2022-11-14T12:40:35.212Z,15.02
2022-11-14T12:43:40.581Z,14.30
2022-11-14T12:47:24.171Z,16.50
2022-11-14T12:50:44.354Z,14.00
2022-11-14T12:53:47.260Z,14.63
2022-11-14T12:57:04.265Z,15.68
2022-11-14T13:00:08.130Z,13.43
2022-11-14T13:06:47.808Z,14.00
2022-11-14T13:10:04.472Z,14.63
2022-11-14T13:13:21.241Z,15.10
2022-11-14T13:16:54.013Z,14.60
2022-11-14T13:20:02.811Z,14.60
2022-11-14T13:23:01.108Z,15.10
2022-11-14T13:26:40.850Z,14.10
2022-11-14T13:30:02.322Z,14.40
2022-11-14T13:32:58.831Z,14.13
2022-11-14T13:36:05.047Z,14.73
2022-11-14T13:39:26.804Z,14.20
2022-11-14T13:42:41.468Z,14.00
2022-11-14T13:46:00.660Z,14.48
2022-11-14T13:49:21.141Z,12.63
2022-11-14T13:52:16.889Z,14.43
2022-11-14T13:55:24.970Z,14.00
2022-11-14T13:58:49.830Z,13.00
2022-11-14T14:02:10.151Z,12.80
2022-11-14T14:05:21.282Z,12.70
2022-11-14T14:08:33.193Z,13.53
2022-11-14T14:11:50.536Z,13.87
2022-11-14T14:15:15.383Z,13.30
2022-11-14T14:18:23.543Z,13.60
2022-11-14T14:21:33.652Z,12.73
2022-11-14T14:24:53.945Z,11.90
2022-11-14T14:28:06.373Z,12.80
2022-11-14T14:31:20.266Z,12.20
2022-11-14T14:37:25.361Z,13.47
2022-11-14T14:40:29.887Z,12.50
2022-11-14T14:43:35.204Z,13.85
2022-11-14T14:46:36.366Z,13.97
2022-11-14T14:49:38.236Z,14.90
2022-11-14T14:52:39.390Z,15.40
2022-11-14T14:55:37.692Z,15.73
2022-11-14T14:58:39.022Z,16.20
2022-11-14T15:01:38.712Z,16.43
2022-11-14T15:04:35.100Z,15.60
2022-11-14T15:07:33.329Z,16.27
2022-11-14T15:10:33.188Z,16.40
2022-11-14T15:13:31.058Z,17.47
2022-11-14T15:16:29.862Z,17.37
2022-11-14T15:19:28.142Z,17.43
2022-11-14T15:22:30.448Z,18.10
2022-11-14T15:25:25.903Z,18.43
2022-11-14T15:28:24.561Z,18.50
2022-11-14T15:31:25.762Z,19.43
2022-11-14T15:34:33.303Z,19.17
2022-11-14T15:37:28.894Z,20.20
2022-11-14T15:40:25.638Z,19.80
2022-11-14T15:43:53.496Z,19.83
2022-11-14T15:46:52.297Z,20.53
2022-11-14T15:50:03.723Z,21.53
2022-11-14T15:53:04.958Z,19.70
2022-11-14T15:56:01.457Z,19.80
2022-11-14T15:58:57.699Z,20.10
2022-11-14T16:02:00.095Z,19.50
2022-11-14T16:04:59.864Z,20.77
2022-11-14T16:07:55.457Z,22.20
2022-11-14T16:10:51.313Z,21.53
2022-11-14T16:13:47.038Z,21.27
2022-11-14T16:16:42.668Z,21.23
2022-11-14T16:19:38.175Z,20.43
2022-11-14T16:22:36.979Z,20.13
2022-11-14T16:25:34.148Z,21.57
2022-11-14T16:28:29.701Z,20.20
2022-11-14T16:31:25.091Z,20.90
2022-11-14T16:34:24.249Z,20.53
2022-11-14T16:37:19.692Z,20.23
2022-11-14T16:40:21.923Z,20.60
2022-11-14T16:43:18.667Z,21.40
2022-11-14T16:46:16.054Z,21.97
2022-11-14T16:49:13.116Z,21.80
2022-11-14T16:52:11.156Z,22.97
2022-11-14T16:55:06.502Z,23.57
2022-11-14T16:58:04.909Z,21.73
2022-11-14T17:01:00.949Z,22.23
2022-11-14T17:03:57.090Z,22.97
2022-11-14T17:06:52.448Z,22.87
2022-11-14T17:09:48.790Z,23.00
2022-11-14T17:12:44.638Z,24.50
2022-11-14T17:15:43.517Z,25.77
2022-11-14T17:18:39.530Z,24.23
2022-11-14T17:21:36.006Z,25.10
2022-11-14T17:24:32.260Z,23.73
2022-11-14T17:27:27.743Z,23.90
2022-11-14T17:30:23.531Z,23.13
2022-11-14T17:33:22.831Z,21.63
2022-11-14T17:36:18.476Z,23.13
2022-11-14T17:39:13.878Z,22.97
2022-11-14T17:42:10.622Z,21.73
2022-11-14T17:45:06.852Z,21.73
2022-11-14T17:48:02.573Z,23.03
2022-11-14T17:51:06.358Z,21.90
2022-11-14T17:57:02.599Z,21.17
2022-11-14T17:59:58.675Z,21.90
2022-11-14T18:02:56.257Z,19.67
2022-11-14T18:05:52.429Z,22.73
2022-11-14T18:08:53.157Z,22.47
2022-11-14T18:11:49.374Z,22.93
2022-11-14T18:14:46.215Z,23.33
2022-11-14T18:17:43.080Z,23.47
2022-11-14T18:20:48.766Z,23.43
2022-11-14T18:23:45.568Z,23.37
2022-11-14T18:26:46.048Z,24.07
2022-11-14T18:29:46.737Z,22.37
2022-11-14T18:32:44.567Z,23.17
2022-11-14T18:35:43.098Z,23.30
2022-11-14T18:38:41.127Z,23.83
2022-11-14T18:41:38.754Z,22.30
2022-11-14T18:44:38.273Z,26.20
2022-11-14T18:47:36.458Z,23.57
2022-11-14T18:50:35.728Z,23.80
2022-11-14T18:53:36.209Z,25.63
2022-11-14T18:56:33.707Z,23.37
2022-11-14T18:59:34.818Z,23.57
2022-11-14T19:02:34.597Z,23.97
2022-11-14T19:05:31.962Z,24.20
2022-11-14T19:08:28.955Z,24.43
2022-11-14T19:11:37.759Z,23.00
2022-11-14T19:14:34.588Z,23.93
2022-11-14T19:17:33.938Z,24.37
2022-11-14T19:20:30.804Z,24.10
2022-11-14T19:23:30.547Z,25.10
2022-11-14T19:26:33.907Z,26.05
2022-11-14T19:29:29.951Z,24.33
2022-11-14T19:32:28.478Z,23.87
2022-11-14T19:35:27.935Z,26.93
2022-11-14T19:38:26.349Z,26.77
2022-11-14T19:41:28.311Z,25.90
2022-11-14T19:44:25.038Z,26.13
2022-11-14T19:47:21.487Z,25.60
2022-11-14T19:50:20.348Z,26.17
2022-11-14T19:53:20.059Z,25.50
2022-11-14T19:56:20.494Z,24.73
2022-11-14T19:59:20.180Z,24.70
2022-11-14T20:02:20.876Z,23.03
2022-11-14T20:05:17.463Z,25.80
2022-11-14T20:08:13.733Z,25.63
2022-11-14T20:11:15.970Z,25.03
2022-11-14T20:14:15.034Z,25.63
2022-11-14T20:17:11.118Z,25.37
2022-11-14T20:20:07.887Z,26.53
2022-11-14T20:23:05.035Z,26.27
2022-11-14T20:26:01.646Z,26.80
2022-11-14T20:29:01.378Z,26.60
2022-11-14T20:31:58.236Z,24.87
2022-11-14T20:34:53.936Z,24.93
2022-11-14T20:37:51.194Z,26.33
2022-11-14T20:40:47.222Z,27.80
2022-11-14T20:43:44.674Z,27.87
2022-11-14T20:46:43.030Z,28.23
2022-11-14T20:49:40.311Z,26.17
2022-11-14T20:52:36.700Z,27.33
2022-11-14T20:55:33.231Z,28.23
2022-11-14T20:58:34.740Z,27.23
2022-11-14T21:01:30.875Z,27.77
2022-11-14T21:04:28.694Z,25.93
2022-11-14T21:07:24.697Z,27.57
2022-11-14T21:10:35.597Z,29.30
